createdAt,value
2023-11-26T00:02:30.668Z,2.53
2023-11-26T00:07:39.185Z,2.50
2023-11-26T00:12:44.895Z,2.30
2023-11-26T00:17:53.982Z,2.03
2023-11-26T00:23:03.956Z,3.47
2023-11-26T00:28:09.735Z,1.85
2023-11-26T00:33:17.075Z,2.83
2023-11-26T00:38:26.025Z,2.70
2023-11-26T00:43:31.895Z,1.85
2023-11-26T00:48:43.855Z,2.63
2023-11-26T00:53:53.066Z,2.75
2023-11-26T00:58:58.597Z,2.43
2023-11-26T01:04:04.130Z,2.33
2023-11-26T01:09:14.096Z,2.42
2023-11-26T01:14:19.872Z,2.13
2023-11-26T01:19:25.453Z,2.53
2023-11-26T01:24:33.934Z,2.30
2023-11-26T01:29:40.183Z,2.38
2023-11-26T01:34:45.687Z,2.30
2023-11-26T01:39:53.953Z,1.90
2023-11-26T01:44:59.728Z,1.90
2023-11-26T01:50:06.745Z,2.40
2023-11-26T01:55:15.424Z,2.13
2023-11-26T02:00:23.201Z,2.20
2023-11-26T02:05:31.887Z,2.20
2023-11-26T02:10:40.240Z,2.30
2023-11-26T02:15:45.651Z,1.77
2023-11-26T02:20:51.205Z,2.17
2023-11-26T02:26:02.859Z,2.00
2023-11-26T02:31:08.809Z,2.30
2023-11-26T02:36:14.338Z,2.78
2023-11-26T02:41:22.575Z,3.13
2023-11-26T02:46:29.093Z,2.53
2023-11-26T02:51:34.874Z,2.97
2023-11-26T02:56:45.654Z,2.20
2023-11-26T03:01:53.192Z,2.50
2023-11-26T03:07:00.003Z,2.20
2023-11-26T03:12:21.752Z,2.88
2023-11-26T03:17:27.283Z,2.58
2023-11-26T03:22:33.644Z,2.20
2023-11-26T03:27:41.730Z,2.40
2023-11-26T03:32:47.539Z,2.17
2023-11-26T03:37:55.269Z,2.15
2023-11-26T03:43:03.564Z,2.53
2023-11-26T03:48:10.271Z,2.50
2023-11-26T03:53:16.059Z,2.95
2023-11-26T03:58:24.206Z,2.60
2023-11-26T04:03:29.820Z,2.63
2023-11-26T04:08:35.833Z,2.30
2023-11-26T04:13:46.621Z,2.43
2023-11-26T04:18:52.394Z,2.97
2023-11-26T04:23:57.928Z,3.40
2023-11-26T04:29:06.275Z,2.45
2023-11-26T04:34:11.808Z,2.80
2023-11-26T04:39:17.254Z,3.30
2023-11-26T04:44:25.326Z,3.83
2023-11-26T04:49:31.132Z,4.10
2023-11-26T04:54:36.580Z,4.40
2023-11-26T04:59:44.663Z,4.82
2023-11-26T05:04:50.229Z,4.50
2023-11-26T05:09:56.576Z,4.10
2023-11-26T05:15:05.775Z,4.87
2023-11-26T05:20:15.477Z,4.53
2023-11-26T05:25:21.908Z,4.57
2023-11-26T05:30:30.169Z,4.77
2023-11-26T05:35:36.356Z,5.03
2023-11-26T05:40:41.893Z,5.30
2023-11-26T05:45:50.337Z,5.07
2023-11-26T05:50:55.887Z,5.00
2023-11-26T05:56:01.368Z,4.93
2023-11-26T06:01:09.589Z,5.15
2023-11-26T06:06:15.037Z,5.23
2023-11-26T06:11:20.525Z,4.63
2023-11-26T06:16:28.659Z,5.25
2023-11-26T06:21:34.307Z,5.03
2023-11-26T06:26:39.971Z,5.70
2023-11-26T06:31:48.136Z,6.17
2023-11-26T06:36:54.340Z,6.78
2023-11-26T06:42:00.600Z,6.18
2023-11-26T06:47:08.748Z,6.70
2023-11-26T06:52:15.557Z,6.97
2023-11-26T06:57:21.897Z,6.97
2023-11-26T07:02:30.391Z,7.20
2023-11-26T07:07:35.816Z,6.72
2023-11-26T07:12:41.295Z,7.17
2023-11-26T07:17:53.319Z,7.75
2023-11-26T07:22:58.873Z,7.17
2023-11-26T07:28:05.316Z,7.80
2023-11-26T07:33:15.754Z,8.63
2023-11-26T07:38:21.784Z,7.83
2023-11-26T07:43:27.335Z,8.27
2023-11-26T07:48:35.569Z,9.60
2023-11-26T07:53:41.852Z,8.93
2023-11-26T07:58:47.388Z,9.07
2023-11-26T08:03:57.079Z,8.17
2023-11-26T08:09:05.943Z,9.65
2023-11-26T08:14:13.817Z,8.97
2023-11-26T08:19:24.870Z,8.40
2023-11-26T08:24:33.573Z,9.68
2023-11-26T08:29:39.718Z,9.70
2023-11-26T08:34:52.144Z,9.13
2023-11-26T08:39:57.792Z,8.07
2023-11-26T08:45:04.127Z,8.50
2023-11-26T08:50:13.437Z,8.20
2023-11-26T08:55:19.121Z,9.23
2023-11-26T09:00:27.424Z,8.30
2023-11-26T09:05:36.803Z,7.33
2023-11-26T09:10:42.473Z,7.15
2023-11-26T09:15:48.180Z,7.55
2023-11-26T09:20:56.432Z,7.50
2023-11-26T09:26:03.700Z,7.65
2023-11-26T09:31:10.311Z,6.83
2023-11-26T09:36:18.503Z,8.23
2023-11-26T09:41:25.493Z,6.88
2023-11-26T09:46:35.055Z,8.10
2023-11-26T09:51:44.585Z,7.65
2023-11-26T09:56:50.510Z,8.07
2023-11-26T10:01:56.254Z,7.43
2023-11-26T10:07:05.176Z,8.15
2023-11-26T10:12:12.173Z,8.80
2023-11-26T10:17:18.415Z,7.10
2023-11-26T10:22:27.123Z,8.20
2023-11-26T10:27:32.657Z,8.43
2023-11-26T10:32:59.607Z,8.02
2023-11-26T10:38:14.634Z,7.23
2023-11-26T10:43:24.671Z,6.88
2023-11-26T10:48:31.757Z,7.43
2023-11-26T10:53:47.177Z,7.82
2023-11-26T10:58:59.647Z,8.05
2023-11-26T11:04:06.518Z,8.60
2023-11-26T11:09:27.938Z,7.65
2023-11-26T11:14:36.997Z,7.00
2023-11-26T11:19:54.277Z,8.18
2023-11-26T11:25:11.037Z,7.47
2023-11-26T11:30:58.662Z,7.93
2023-11-26T11:36:10.385Z,7.30
2023-11-26T11:41:18.794Z,7.10
2023-11-26T11:46:51.178Z,8.15
2023-11-26T11:51:58.749Z,6.93
2023-11-26T11:57:12.510Z,7.33
2023-11-26T12:02:20.242Z,7.97
2023-11-26T12:07:35.584Z,8.13
2023-11-26T12:12:44.270Z,8.35
2023-11-26T12:17:50.595Z,7.93
2023-11-26T12:22:58.118Z,7.77
2023-11-26T12:28:10.483Z,6.78
2023-11-26T12:33:20.131Z,8.00
2023-11-26T12:38:27.582Z,8.23
2023-11-26T12:43:36.603Z,8.05
2023-11-26T12:48:42.935Z,8.00
2023-11-26T12:53:54.229Z,7.18
2023-11-26T12:59:07.125Z,8.23
2023-11-26T13:04:13.271Z,7.00
2023-11-26T13:09:20.594Z,7.57
2023-11-26T13:14:29.199Z,7.03
2023-11-26T13:19:34.789Z,7.38
2023-11-26T13:24:40.511Z,7.27
2023-11-26T13:29:49.342Z,7.00
2023-11-26T13:34:56.485Z,6.03
2023-11-26T13:40:02.047Z,6.23
2023-11-26T13:45:21.500Z,8.00
2023-11-26T13:50:30.337Z,7.80
2023-11-26T13:55:36.414Z,6.22
2023-11-26T14:00:45.698Z,5.43
2023-11-26T14:05:51.679Z,4.67
2023-11-26T14:10:58.088Z,4.45
2023-11-26T14:16:06.788Z,3.33
2023-11-26T14:21:13.583Z,4.03
2023-11-26T14:26:19.243Z,3.47
2023-11-26T14:31:28.007Z,4.20
2023-11-26T14:36:34.341Z,4.50
2023-11-26T14:41:40.859Z,5.23
2023-11-26T14:46:50.046Z,5.97
2023-11-26T14:51:55.742Z,6.22
2023-11-26T14:57:02.577Z,6.87
2023-11-26T15:02:12.571Z,6.32
2023-11-26T15:07:20.441Z,6.53
2023-11-26T15:12:26.606Z,5.68
2023-11-26T15:17:35.189Z,6.35
2023-11-26T15:22:44.880Z,6.87
2023-11-26T15:27:50.629Z,6.15
2023-11-26T15:32:59.511Z,5.03
2023-11-26T15:38:11.335Z,5.72
2023-11-26T15:43:21.998Z,5.50
2023-11-26T15:48:32.915Z,5.73
2023-11-26T15:53:39.489Z,5.63
2023-11-26T15:58:45.069Z,4.60
2023-11-26T16:03:53.822Z,5.75
2023-11-26T16:09:01.277Z,5.03
2023-11-26T16:14:07.400Z,4.70
2023-11-26T16:19:15.963Z,4.90
2023-11-26T16:24:29.019Z,4.87
2023-11-26T16:29:41.244Z,4.53
2023-11-26T16:34:50.203Z,3.88
2023-11-26T16:39:56.051Z,4.57
2023-11-26T16:45:03.621Z,3.72
2023-11-26T16:50:14.777Z,3.67
2023-11-26T16:55:20.970Z,4.78
2023-11-26T17:00:27.167Z,4.68
2023-11-26T17:05:40.837Z,4.57
2023-11-26T17:10:48.015Z,5.38
2023-11-26T17:15:54.437Z,5.53
2023-11-26T17:21:03.225Z,5.80
2023-11-26T17:26:09.808Z,6.22
2023-11-26T17:31:15.812Z,7.03
2023-11-26T17:36:24.457Z,7.15
2023-11-26T17:41:30.681Z,7.33
2023-11-26T17:46:41.373Z,7.93
2023-11-26T17:51:49.975Z,8.35
2023-11-26T17:56:57.691Z,8.20
2023-11-26T18:02:05.355Z,7.63
2023-11-26T18:07:13.798Z,7.93
2023-11-26T18:12:19.687Z,8.18
2023-11-26T18:17:25.515Z,7.30
2023-11-26T18:22:34.018Z,7.10
2023-11-26T18:27:39.750Z,5.80
2023-11-26T18:32:46.857Z,5.77
2023-11-26T18:37:57.600Z,5.95
2023-11-26T18:43:03.945Z,5.97
2023-11-26T18:48:10.567Z,6.30
2023-11-26T18:53:19.112Z,5.95
2023-11-26T18:58:25.005Z,6.50
2023-11-26T19:03:30.916Z,5.65
2023-11-26T19:08:40.374Z,6.10
2023-11-26T19:13:46.022Z,5.67
2023-11-26T19:18:52.134Z,5.78
2023-11-26T19:24:00.984Z,5.53
2023-11-26T19:29:07.020Z,5.28
2023-11-26T19:34:14.038Z,5.28
2023-11-26T19:39:22.639Z,5.63
2023-11-26T19:44:28.412Z,6.25
2023-11-26T19:49:34.329Z,5.67
2023-11-26T19:54:42.700Z,5.88
2023-11-26T19:59:51.825Z,5.00
2023-11-26T20:04:58.383Z,5.70
2023-11-26T20:10:08.955Z,5.00
2023-11-26T20:15:17.639Z,4.40
2023-11-26T20:20:23.838Z,5.68
2023-11-26T20:25:34.422Z,6.65
2023-11-26T20:30:48.409Z,4.77
2023-11-26T20:35:57.885Z,4.38
2023-11-26T20:41:06.739Z,4.90
2023-11-26T20:46:13.097Z,4.43
2023-11-26T20:51:26.792Z,5.35
2023-11-26T20:56:35.512Z,4.50
2023-11-26T21:01:41.476Z,4.53
2023-11-26T21:06:47.446Z,4.73
2023-11-26T21:11:55.973Z,4.30
2023-11-26T21:17:02.222Z,3.83
2023-11-26T21:22:09.533Z,3.60
2023-11-26T21:27:18.106Z,3.75
2023-11-26T21:32:24.054Z,3.63
2023-11-26T21:37:31.104Z,2.85
2023-11-26T21:42:39.607Z,2.97
2023-11-26T21:47:45.950Z,3.10
2023-11-26T21:52:51.715Z,2.90
2023-11-26T21:58:00.228Z,3.20
2023-11-26T22:03:06.762Z,3.38
2023-11-26T22:08:12.889Z,3.03
2023-11-26T22:13:21.411Z,3.50
2023-11-26T22:18:32.430Z,3.45
2023-11-26T22:23:38.878Z,3.70
2023-11-26T22:28:48.157Z,3.13
2023-11-26T22:33:53.936Z,2.80
2023-11-26T22:39:03.099Z,2.60
2023-11-26T22:44:11.511Z,2.45
2023-11-26T22:49:17.406Z,2.50
2023-11-26T22:54:23.056Z,2.40
2023-11-26T22:59:34.026Z,4.10
2023-11-26T23:04:40.574Z,3.70
2023-11-26T23:09:46.165Z,3.15
2023-11-26T23:14:54.684Z,4.60
2023-11-26T23:20:02.028Z,2.75
2023-11-26T23:25:10.864Z,2.33
2023-11-26T23:30:19.897Z,2.80
2023-11-26T23:35:25.438Z,2.25
2023-11-26T23:40:33.664Z,2.37
2023-11-26T23:45:41.881Z,2.95
2023-11-26T23:50:47.524Z,2.40
2023-11-26T23:55:56.211Z,3.20
